Time;durP1;ratioP1;P1;durP2;ratioP2;P2;SDS_P1;SDS_P2;PMS_P1;PMS_P2;Temp;Humidity;BMP_temperature;BMP_pressure;BME280_temperature;BME280_humidity;BME280_pressure;Samples;Min_cycle;Max_cycle;Signal;HPM_P1;HPM_P2
2022/08/25 00:01:38;;;;;;;20.42;9.73;;;;;;;-144.48;100.00;62369.91;5007045;28;20035;-68
2022/08/25 00:04:06;;;;;;;16.38;9.38;;;;;;;-144.48;100.00;62369.91;5014497;28;20030;-69
2022/08/25 00:06:32;;;;;;;22.38;9.82;;;;;;;-144.48;100.00;62369.91;5001756;28;20021;-68
2022/08/25 00:08:58;;;;;;;19.92;9.88;;;;;;;-144.48;100.00;62369.91;5005310;28;20038;-67
2022/08/25 00:11:27;;;;;;;24.60;10.10;;;;;;;-144.48;100.00;62369.91;4995480;28;20052;-68
2022/08/25 00:14:02;;;;;;;18.77;10.20;;;;;;;-144.48;100.00;62369.91;5002925;28;20227;-65
2022/08/25 00:16:30;;;;;;;25.05;9.52;;;;;;;-144.48;100.00;62369.91;5006089;28;20018;-68
2022/08/25 00:18:57;;;;;;;25.92;10.65;;;;;;;-144.48;100.00;62369.91;5004131;28;20048;-66
2022/08/25 00:21:24;;;;;;;18.70;10.50;;;;;;;-144.48;100.00;62369.91;5008451;28;20085;-68
2022/08/25 00:23:50;;;;;;;16.90;10.95;;;;;;;-144.48;100.00;62369.91;4991758;28;20032;-69
2022/08/25 00:26:16;;;;;;;27.92;11.48;;;;;;;-144.48;100.00;62369.91;5003244;28;20022;-66
2022/08/25 00:28:43;;;;;;;22.95;10.73;;;;;;;-144.48;100.00;62369.91;4996139;28;20022;-68
2022/08/25 00:31:14;;;;;;;22.08;11.18;;;;;;;-144.48;100.00;62369.91;4981303;28;20125;-69
2022/08/25 00:33:39;;;;;;;19.90;10.52;;;;;;;-144.48;100.00;62369.91;4992775;28;20041;-67
2022/08/25 00:36:05;;;;;;;17.35;10.25;;;;;;;-144.48;100.00;62369.91;5004920;28;20027;-66
2022/08/25 00:38:30;;;;;;;31.17;11.60;;;;;;;-144.48;100.00;62369.91;5004095;28;20445;-70
2022/08/25 00:41:05;;;;;;;25.23;12.35;;;;;;;-144.48;100.00;62369.91;5012822;28;20033;-68
2022/08/25 00:43:39;;;;;;;19.88;11.43;;;;;;;-144.48;100.00;62369.91;5010408;28;20029;-67
2022/08/25 00:46:05;;;;;;;23.50;12.45;;;;;;;-144.48;100.00;62369.91;5003044;28;20040;-68
2022/08/25 00:48:31;;;;;;;21.42;11.80;;;;;;;-144.48;100.00;62369.91;4995572;28;20052;-69
2022/08/25 00:50:58;;;;;;;22.23;11.52;;;;;;;-144.48;100.00;62369.91;5002055;28;20391;-69
2022/08/25 00:53:23;;;;;;;31.35;12.02;;;;;;;-144.48;100.00;62369.91;5008708;28;20026;-70
2022/08/25 00:55:49;;;;;;;22.48;11.95;;;;;;;-144.48;100.00;62369.91;5001476;28;20395;-68
2022/08/25 00:58:19;;;;;;;19.77;10.70;;;;;;;-144.48;100.00;62369.91;4997693;28;20711;-68
2022/08/25 01:00:49;;;;;;;23.52;11.90;;;;;;;-144.48;100.00;62369.91;5001745;28;20026;-68
2022/08/25 01:03:17;;;;;;;27.80;12.05;;;;;;;-144.48;100.00;62369.91;4991543;28;20045;-69
2022/08/25 01:05:43;;;;;;;;;;;;;;;-144.48;100.00;62369.91;5003020;28;20057;-68
2022/08/25 01:08:09;;;;;;;27.88;11.95;;;;;;;-144.48;100.00;62369.91;4993376;28;19984;-67
2022/08/25 01:10:38;;;;;;;24.17;11.27;;;;;;;-144.48;100.00;62369.91;5002097;28;20053;-69
2022/08/25 01:13:10;;;;;;;;;;;;;;;-144.48;100.00;62369.91;5010544;28;20025;-68
2022/08/25 01:15:36;;;;;;;21.92;13.32;;;;;;;-144.48;100.00;62369.91;5001457;28;19910;-69
2022/08/25 01:18:02;;;;;;;23.88;13.00;;;;;;;-144.48;100.00;62369.91;5004387;28;20037;-67
2022/08/25 01:20:31;;;;;;;24.42;12.60;;;;;;;-144.48;100.00;62369.91;5003237;28;20029;-69
2022/08/25 01:22:58;;;;;;;39.15;12.63;;;;;;;-144.48;100.00;62369.91;5011432;28;20101;-68
2022/08/25 01:25:34;;;;;;;27.40;11.90;;;;;;;-144.48;100.00;62369.91;5005863;28;20057;-67
2022/08/25 01:28:00;;;;;;;25.90;12.60;;;;;;;-144.48;100.00;62369.91;4978927;28;20110;-67
2022/08/25 01:30:26;;;;;;;25.98;11.90;;;;;;;-144.48;100.00;62369.91;4978103;28;20098;-68
2022/08/25 01:32:52;;;;;;;24.77;12.68;;;;;;;-144.48;100.00;62369.91;4997969;28;20022;-66
2022/08/25 01:35:17;;;;;;;20.42;12.52;;;;;;;-144.48;100.00;62369.91;5005389;28;20076;-68
2022/08/25 01:37:43;;;;;;;25.45;13.13;;;;;;;-144.48;100.00;62369.91;5000742;28;20056;-67
2022/08/25 01:40:09;;;;;;;20.95;12.20;;;;;;;-144.48;100.00;62369.91;4996704;28;20073;-68
2022/08/25 01:43:05;;;;;;;20.73;12.40;;;;;;;-144.48;100.00;62369.91;5000408;28;20028;-68
2022/08/25 01:45:31;;;;;;;18.88;12.23;;;;;;;-144.48;100.00;62369.91;4995351;28;20125;-66
2022/08/25 01:47:56;;;;;;;20.70;12.45;;;;;;;-144.48;100.00;62369.91;5002331;28;20101;-67
2022/08/25 01:50:22;;;;;;;27.15;12.05;;;;;;;-144.48;100.00;62369.91;4995758;28;20072;-68
2022/08/25 01:53:10;;;;;;;24.05;12.48;;;;;;;-144.48;100.00;62369.91;5010203;28;20061;-67
2022/08/25 01:55:52;;;;;;;31.85;12.32;;;;;;;-144.48;100.00;62369.91;5003074;28;20488;-68
2022/08/25 01:58:18;;;;;;;22.38;12.75;;;;;;;-144.48;100.00;62369.91;5006144;28;20361;-66
2022/08/25 02:00:49;;;;;;;25.52;11.77;;;;;;;-144.48;100.00;62369.91;5002270;28;20480;-67
2022/08/25 02:03:15;;;;;;;25.70;12.52;;;;;;;-144.48;100.00;62369.91;5004196;28;20037;-69
2022/08/25 02:05:41;;;;;;;21.85;12.18;;;;;;;-144.48;100.00;62369.91;4989332;28;20042;-70
2022/08/25 02:08:07;;;;;;;20.77;12.38;;;;;;;-144.48;100.00;62369.91;4994983;28;20491;-69
2022/08/25 02:10:33;;;;;;;23.20;12.35;;;;;;;-144.48;100.00;62369.91;5006932;28;20029;-67
2022/08/25 02:12:58;;;;;;;24.77;12.82;;;;;;;-144.48;100.00;62369.91;4992027;28;20101;-68
2022/08/25 02:15:24;;;;;;;26.65;12.75;;;;;;;-144.48;100.00;62369.91;5001680;28;20186;-69
2022/08/25 02:17:49;;;;;;;26.35;14.32;;;;;;;-144.48;100.00;62369.91;4995268;28;20032;-68
2022/08/25 02:20:15;;;;;;;27.02;13.82;;;;;;;-144.48;100.00;62369.91;4997180;28;20026;-68
2022/08/25 02:22:40;;;;;;;26.00;13.40;;;;;;;-144.48;100.00;62369.91;5004090;28;20117;-67
2022/08/25 02:25:06;;;;;;;23.90;12.82;;;;;;;-144.48;100.00;62369.91;5001847;28;20026;-69
2022/08/25 02:27:31;;;;;;;22.13;14.88;;;;;;;-144.48;100.00;62369.91;5013687;28;20037;-71
2022/08/25 02:29:57;;;;;;;23.00;12.95;;;;;;;-144.48;100.00;62369.91;4995508;28;20029;-69
2022/08/25 02:32:22;;;;;;;20.33;13.80;;;;;;;-144.48;100.00;62369.91;5012666;28;20029;-68
2022/08/25 02:34:47;;;;;;;25.30;13.73;;;;;;;-144.48;100.00;62369.91;5002524;28;20025;-71
2022/08/25 02:37:13;;;;;;;22.25;14.05;;;;;;;-144.48;100.00;62369.91;5005823;28;20034;-69
2022/08/25 02:39:39;;;;;;;22.50;13.15;;;;;;;-144.48;100.00;62369.91;5000452;28;20072;-68
2022/08/25 02:42:05;;;;;;;30.95;14.57;;;;;;;-144.48;100.00;62369.91;4992818;28;20125;-66
2022/08/25 02:44:30;;;;;;;31.70;14.45;;;;;;;-144.48;100.00;62369.91;4999608;28;20106;-67
2022/08/25 02:46:56;;;;;;;28.60;14.52;;;;;;;-144.48;100.00;62369.91;4992855;28;20032;-67
2022/08/25 02:49:21;;;;;;;26.73;14.63;;;;;;;-144.48;100.00;62369.91;4999559;28;20041;-65
2022/08/25 02:51:46;;;;;;;30.05;14.13;;;;;;;-144.48;100.00;62369.91;5001977;28;20370;-67
2022/08/25 02:54:12;;;;;;;29.20;13.88;;;;;;;-144.48;100.00;62369.91;4989905;28;20026;-69
2022/08/25 02:56:38;;;;;;;27.23;14.80;;;;;;;-144.48;100.00;62369.91;4991974;28;20031;-68
2022/08/25 02:59:04;;;;;;;34.30;14.95;;;;;;;-144.48;100.00;62369.91;4989638;28;20038;-69
2022/08/25 03:01:31;;;;;;;24.45;14.27;;;;;;;-144.48;100.00;62369.91;5004229;28;20031;-68
2022/08/25 03:03:57;;;;;;;25.95;14.30;;;;;;;-144.48;100.00;62369.91;5000292;28;20033;-69
2022/08/25 03:06:23;;;;;;;27.33;14.43;;;;;;;-144.48;100.00;62369.91;5006878;28;20025;-69
2022/08/25 03:08:49;;;;;;;29.58;14.48;;;;;;;-144.48;100.00;62369.91;5000320;28;20025;-65
2022/08/25 03:11:15;;;;;;;24.02;14.25;;;;;;;-144.48;100.00;62369.91;5001136;28;20026;-68
2022/08/25 03:13:40;;;;;;;27.33;15.00;;;;;;;-144.48;100.00;62369.91;5010320;28;20168;-68
2022/08/25 03:16:07;;;;;;;27.38;16.05;;;;;;;-144.48;100.00;62369.91;4996255;28;20117;-68
2022/08/25 03:18:33;;;;;;;31.05;14.65;;;;;;;-144.48;100.00;62369.91;5000173;28;20027;-67
2022/08/25 03:20:59;;;;;;;25.88;14.30;;;;;;;-144.48;100.00;62369.91;5006232;28;20057;-65
2022/08/25 03:23:24;;;;;;;31.65;15.25;;;;;;;-144.48;100.00;62369.91;5008337;28;20522;-70
2022/08/25 03:28:34;;;;;;;29.23;15.80;;;;;;;-144.48;100.00;62369.91;4996615;28;20684;-67
2022/08/25 03:31:00;;;;;;;30.95;15.50;;;;;;;-144.48;100.00;62369.91;4978935;28;20023;-67
2022/08/25 03:33:28;;;;;;;35.70;15.95;;;;;;;-144.48;100.00;62369.91;4999205;28;20068;-67
2022/08/25 03:35:54;;;;;;;30.10;16.73;;;;;;;-144.48;100.00;62369.91;5009611;28;20121;-67
2022/08/25 03:38:20;;;;;;;38.15;16.38;;;;;;;-144.48;100.00;62369.91;4993096;28;20512;-69
2022/08/25 03:40:46;;;;;;;37.70;17.05;;;;;;;-144.48;100.00;62369.91;4993179;28;20033;-67
2022/08/25 03:43:12;;;;;;;30.25;16.63;;;;;;;-144.48;100.00;62369.91;5006402;28;20026;-66
2022/08/25 03:45:42;;;;;;;31.63;17.83;;;;;;;-144.48;100.00;62369.91;5012321;28;20030;-68
2022/08/25 03:48:07;;;;;;;32.72;17.10;;;;;;;-144.48;100.00;62369.91;4999519;28;20488;-68
2022/08/25 03:50:33;;;;;;;38.30;18.48;;;;;;;-144.48;100.00;62369.91;5000117;28;20037;-66
2022/08/25 03:52:59;;;;;;;44.53;17.75;;;;;;;-144.48;100.00;62369.91;5005847;28;20103;-67
2022/08/25 03:55:25;;;;;;;58.03;17.08;;;;;;;-144.48;100.00;62369.91;5010955;28;20037;-67
2022/08/25 03:57:53;;;;;;;39.55;17.88;;;;;;;-144.48;100.00;62369.91;4999189;28;20041;-68
2022/08/25 04:00:20;;;;;;;34.17;17.77;;;;;;;-144.48;100.00;62369.91;5012429;28;20103;-67
2022/08/25 04:02:46;;;;;;;35.00;18.75;;;;;;;-144.48;100.00;62369.91;5012155;28;20034;-68
2022/08/25 04:05:12;;;;;;;34.45;17.42;;;;;;;-144.48;100.00;62369.91;5011000;28;20041;-66
2022/08/25 04:07:37;;;;;;;33.08;17.85;;;;;;;-144.48;100.00;62369.91;5009529;28;20037;-67
2022/08/25 04:10:06;;;;;;;40.63;17.75;;;;;;;-144.48;100.00;62369.91;5012369;28;20028;-66
2022/08/25 04:12:33;;;;;;;41.72;17.55;;;;;;;-144.48;100.00;62369.91;5010598;28;20022;-67
2022/08/25 04:14:58;;;;;;;33.22;18.55;;;;;;;-144.48;100.00;62369.91;5004423;28;20041;-69
2022/08/25 04:17:24;;;;;;;34.10;17.27;;;;;;;-144.48;100.00;62369.91;5006616;28;20030;-66
2022/08/25 04:19:49;;;;;;;45.42;20.90;;;;;;;-144.48;100.00;62369.91;5011824;28;20026;-68
2022/08/25 04:22:15;;;;;;;32.92;18.20;;;;;;;-144.48;100.00;62369.91;4999763;28;20034;-67
2022/08/25 04:24:41;;;;;;;40.05;18.52;;;;;;;-144.48;100.00;62369.91;5009561;22;20138;-71
2022/08/25 04:27:06;;;;;;;40.00;18.98;;;;;;;-144.48;100.00;62369.91;4978144;28;20117;-70
2022/08/25 04:29:32;;;;;;;37.33;18.83;;;;;;;-144.48;100.00;62369.91;4973110;28;20034;-70
2022/08/25 04:31:57;;;;;;;39.25;18.35;;;;;;;-144.48;100.00;62369.91;4978060;28;20034;-69
2022/08/25 04:34:24;;;;;;;34.35;20.02;;;;;;;-144.48;100.00;62369.91;4990990;28;20046;-70
2022/08/25 04:36:50;;;;;;;33.97;18.88;;;;;;;-144.48;100.00;62369.91;4994404;28;20040;-68
2022/08/25 04:39:16;;;;;;;39.03;18.83;;;;;;;-144.48;100.00;62369.91;4993256;28;20117;-70
2022/08/25 04:41:41;;;;;;;39.17;18.55;;;;;;;-144.48;100.00;62369.91;4988842;28;20187;-70
2022/08/25 04:44:07;;;;;;;36.72;18.50;;;;;;;-144.48;100.00;62369.91;4988624;28;20041;-70
2022/08/25 04:46:33;;;;;;;41.83;19.27;;;;;;;-144.48;100.00;62369.91;4990942;28;20057;-68
2022/08/25 04:49:00;;;;;;;37.78;19.27;;;;;;;-144.48;100.00;62369.91;4990173;28;20634;-69
2022/08/25 04:51:29;;;;;;;35.53;17.52;;;;;;;-144.48;100.00;62369.91;4991275;28;20088;-66
2022/08/25 04:53:54;;;;;;;37.15;18.75;;;;;;;-144.48;100.00;62369.91;4997058;28;20041;-69
2022/08/25 04:56:25;;;;;;;42.47;19.45;;;;;;;-144.48;100.00;62369.91;4993377;28;20522;-69
2022/08/25 04:58:52;;;;;;;40.67;18.65;;;;;;;-144.48;100.00;62369.91;4991045;28;20041;-70
2022/08/25 05:01:20;;;;;;;37.28;17.92;;;;;;;-144.48;100.00;62369.91;4990797;28;20034;-69
2022/08/25 05:03:47;;;;;;;39.20;19.30;;;;;;;-144.48;100.00;62369.91;4991394;28;20053;-71
2022/08/25 05:06:13;;;;;;;34.85;19.50;;;;;;;-144.48;100.00;62369.91;4990249;28;20100;-71
2022/08/25 05:08:39;;;;;;;41.17;18.35;;;;;;;-144.48;100.00;62369.91;4989971;28;20058;-70
2022/08/25 05:11:06;;;;;;;34.08;18.25;;;;;;;-144.48;100.00;62369.91;4990968;28;20030;-70
2022/08/25 05:13:31;;;;;;;41.05;18.73;;;;;;;-144.48;100.00;62369.91;5003590;28;20092;-73
2022/08/25 05:15:58;;;;;;;35.90;19.75;;;;;;;-144.48;100.00;62369.91;4990340;28;20030;-72
2022/08/25 05:18:27;;;;;;;44.90;20.15;;;;;;;-144.48;100.00;62369.91;4989214;28;20061;-73
2022/08/25 05:20:53;;;;;;;39.33;18.05;;;;;;;-144.48;100.00;62369.91;4991772;28;20034;-76
2022/08/25 05:23:20;;;;;;;39.63;19.48;;;;;;;-144.48;100.00;62369.91;4991643;28;20034;-76
2022/08/25 05:25:46;;;;;;;41.30;19.13;;;;;;;-144.48;100.00;62369.91;5001380;28;20026;-76
2022/08/25 05:28:12;;;;;;;31.65;19.30;;;;;;;-144.48;100.00;62369.91;4990089;28;20119;-77
2022/08/25 05:30:39;;;;;;;39.75;20.95;;;;;;;-144.48;100.00;62369.91;4987792;28;20020;-73
2022/08/25 05:33:05;;;;;;;38.58;19.42;;;;;;;-144.48;100.00;62369.91;4994621;28;20072;-71
2022/08/25 05:35:31;;;;;;;37.90;19.20;;;;;;;-144.48;100.00;62369.91;4996417;28;20030;-73
2022/08/25 05:37:56;;;;;;;42.05;19.90;;;;;;;-144.48;100.00;62369.91;4990277;28;20037;-72
2022/08/25 05:40:23;;;;;;;38.47;19.13;;;;;;;-144.48;100.00;62369.91;4990310;28;20026;-72
2022/08/25 05:42:49;;;;;;;37.53;18.55;;;;;;;-144.48;100.00;62369.91;4990527;28;20071;-70
2022/08/25 05:45:14;;;;;;;45.83;19.05;;;;;;;-144.48;100.00;62369.91;4978171;28;20026;-73
2022/08/25 05:47:40;;;;;;;36.35;19.60;;;;;;;-144.48;100.00;62369.91;4990067;28;20096;-73
2022/08/25 05:50:07;;;;;;;34.40;19.27;;;;;;;-144.48;100.00;62369.91;4981393;28;20022;-74
2022/08/25 05:52:32;;;;;;;37.20;19.17;;;;;;;-144.48;100.00;62369.91;4975580;28;20084;-71
2022/08/25 05:54:57;;;;;;;40.33;19.73;;;;;;;-144.48;100.00;62369.91;4984654;28;20034;-73
2022/08/25 05:57:23;;;;;;;46.55;19.80;;;;;;;-144.48;100.00;62369.91;4973812;28;20142;-71
2022/08/25 05:59:48;;;;;;;55.53;22.00;;;;;;;-144.48;100.00;62369.91;4987078;28;20030;-71
2022/08/25 06:04:58;;;;;;;34.67;19.75;;;;;;;-144.48;100.00;62369.91;4977350;28;20033;-72
2022/08/25 06:07:23;;;;;;;38.42;20.60;;;;;;;-144.48;100.00;62369.91;4987565;28;20038;-73
2022/08/25 06:09:49;;;;;;;36.28;20.33;;;;;;;-144.48;100.00;62369.91;4986443;28;20026;-70
2022/08/25 06:12:16;;;;;;;39.83;20.38;;;;;;;-144.48;100.00;62369.91;4986487;28;20612;-68
2022/08/25 06:14:41;;;;;;;41.17;20.70;;;;;;;-144.48;100.00;62369.91;4980329;28;20584;-72
2022/08/25 06:17:07;;;;;;;42.45;20.15;;;;;;;-144.48;100.00;62369.91;4979954;28;20022;-72
2022/08/25 06:19:33;;;;;;;41.97;21.42;;;;;;;-144.48;100.00;62369.91;4977596;28;20118;-72
2022/08/25 06:21:59;;;;;;;41.30;20.42;;;;;;;-144.48;100.00;62369.91;4984115;28;20096;-70
2022/08/25 06:24:26;;;;;;;41.35;20.42;;;;;;;-144.48;100.00;62369.91;4983515;28;20034;-72
2022/08/25 06:26:52;;;;;;;48.43;20.40;;;;;;;-144.48;100.00;62369.91;4989357;28;20030;-71
2022/08/25 06:29:18;;;;;;;48.97;19.63;;;;;;;-144.48;100.00;62369.91;4984271;28;20046;-71
2022/08/25 06:31:43;;;;;;;43.50;20.58;;;;;;;-144.48;100.00;62369.91;4989330;28;20018;-71
2022/08/25 06:34:09;;;;;;;47.15;21.67;;;;;;;-144.48;100.00;62369.91;5002970;28;20510;-72
2022/08/25 06:36:35;;;;;;;45.47;20.00;;;;;;;-144.48;100.00;62369.91;4989304;28;20141;-71
2022/08/25 06:39:00;;;;;;;42.13;20.60;;;;;;;-144.48;100.00;62369.91;4991500;28;20105;-74
2022/08/25 06:41:26;;;;;;;44.30;20.45;;;;;;;-144.48;100.00;62369.91;4990809;28;20495;-72
2022/08/25 06:43:51;;;;;;;46.47;19.05;;;;;;;-144.48;100.00;62369.91;4989607;28;20038;-71
2022/08/25 06:46:22;;;;;;;42.45;20.23;;;;;;;-144.48;100.00;62369.91;4990088;28;20018;-72
2022/08/25 06:48:48;;;;;;;36.97;19.38;;;;;;;-144.48;100.00;62369.91;4989325;28;20391;-73
2022/08/25 06:51:17;;;;;;;36.63;18.58;;;;;;;-144.48;100.00;62369.91;4989437;28;20587;-73
2022/08/25 06:53:43;;;;;;;35.65;17.92;;;;;;;-144.48;100.00;62369.91;4989369;28;20034;-72
2022/08/25 06:56:09;;;;;;;40.85;18.58;;;;;;;-144.48;100.00;62369.91;4987574;28;20800;-72
2022/08/25 06:58:35;;;;;;;39.38;20.05;;;;;;;-144.48;100.00;62369.91;4992441;28;20061;-69
2022/08/25 07:01:20;;;;;;;37.65;19.85;;;;;;;-144.48;100.00;62369.91;4988903;28;20070;-73
2022/08/25 07:03:47;;;;;;;43.03;19.48;;;;;;;-144.48;100.00;62369.91;4992987;28;20034;-73
2022/08/25 07:06:12;;;;;;;42.83;19.58;;;;;;;-144.48;100.00;62369.91;4993394;28;20042;-72
2022/08/25 07:08:38;;;;;;;35.35;18.98;;;;;;;-144.48;100.00;62369.91;4994395;28;20037;-72
2022/08/25 07:11:06;;;;;;;45.90;19.45;;;;;;;-144.48;100.00;62369.91;4975698;28;20032;-72
2022/08/25 07:13:31;;;;;;;46.37;19.90;;;;;;;-144.48;100.00;62369.91;4997393;28;20181;-73
2022/08/25 07:15:57;;;;;;;48.55;20.63;;;;;;;-144.48;100.00;62369.91;4995538;28;20535;-72
2022/08/25 07:18:22;;;;;;;42.80;19.98;;;;;;;-144.48;100.00;62369.91;4998147;28;20030;-73
2022/08/25 07:20:48;;;;;;;38.00;19.45;;;;;;;-144.48;100.00;62369.91;4993120;28;20133;-72
2022/08/25 07:23:13;;;;;;;38.85;19.10;;;;;;;-144.48;100.00;62369.91;4995491;28;20049;-71
2022/08/25 07:25:39;;;;;;;41.63;19.13;;;;;;;-144.48;100.00;62369.91;4995915;28;20037;-72
2022/08/25 07:28:04;;;;;;;40.15;18.63;;;;;;;-144.48;100.00;62369.91;4990730;28;20024;-73
2022/08/25 07:30:30;;;;;;;32.40;16.23;;;;;;;-144.48;100.00;62369.91;4995785;28;20037;-72
2022/08/25 07:32:56;;;;;;;36.80;17.40;;;;;;;-144.48;100.00;62369.91;4996736;28;20125;-73
2022/08/25 07:35:24;;;;;;;33.60;17.88;;;;;;;-144.48;100.00;62369.91;4993124;28;20085;-74
2022/08/25 07:37:54;;;;;;;38.47;16.13;;;;;;;-144.48;100.00;62369.91;4995577;28;20054;-73
2022/08/25 07:40:23;;;;;;;45.25;16.98;;;;;;;-144.48;100.00;62369.91;4995828;28;20583;-72
2022/08/25 07:42:52;;;;;;;35.05;16.17;;;;;;;-144.48;100.00;62369.91;4996259;28;20037;-71
2022/08/25 07:45:18;;;;;;;35.42;16.60;;;;;;;-144.48;100.00;62369.91;4996544;28;20525;-73
2022/08/25 07:47:44;;;;;;;37.50;16.55;;;;;;;-144.48;100.00;62369.91;4995299;28;20030;-71
2022/08/25 07:50:11;;;;;;;31.63;14.90;;;;;;;-144.48;100.00;62369.91;4994237;28;20032;-71
2022/08/25 07:52:38;;;;;;;33.63;14.10;;;;;;;-144.48;100.00;62369.91;4999958;28;20604;-74
2022/08/25 07:55:06;;;;;;;36.78;16.20;;;;;;;-144.48;100.00;62369.91;4992603;28;20026;-70
2022/08/25 07:57:32;;;;;;;28.38;14.55;;;;;;;-144.48;100.00;62369.91;4996261;28;20022;-74
2022/08/25 07:59:58;;;;;;;31.92;14.00;;;;;;;-144.48;100.00;62369.91;4997603;28;20034;-75
2022/08/25 08:02:24;;;;;;;32.63;13.80;;;;;;;-144.48;100.00;62369.91;4996261;28;20048;-74
2022/08/25 08:04:52;;;;;;;35.30;14.68;;;;;;;-144.48;100.00;62369.91;4997319;28;20045;-74
2022/08/25 08:07:23;;;;;;;29.20;15.25;;;;;;;-144.48;100.00;62369.91;4992065;28;20041;-74
2022/08/25 08:09:49;;;;;;;31.00;13.80;;;;;;;-144.48;100.00;62369.91;4990018;28;20034;-74
2022/08/25 08:12:15;;;;;;;33.35;13.82;;;;;;;-144.48;100.00;62369.91;4994175;28;20801;-73
2022/08/25 08:14:40;;;;;;;29.42;13.73;;;;;;;-144.48;100.00;62369.91;4998589;28;20740;-72
2022/08/25 08:17:07;;;;;;;28.75;12.98;;;;;;;-144.48;100.00;62369.91;4991962;28;20045;-73
2022/08/25 08:19:33;;;;;;;25.83;13.27;;;;;;;-144.48;100.00;62369.91;4994784;28;20027;-72
2022/08/25 08:21:59;;;;;;;29.20;11.95;;;;;;;-144.48;100.00;62369.91;4997998;28;20034;-74
2022/08/25 08:24:24;;;;;;;26.60;12.15;;;;;;;-144.48;100.00;62369.91;4991878;28;20393;-75
2022/08/25 08:26:50;;;;;;;30.27;12.90;;;;;;;-144.48;100.00;62369.91;4995094;28;20070;-72
2022/08/25 08:29:15;;;;;;;21.77;10.68;;;;;;;-144.48;100.00;62369.91;4997279;28;20085;-75
2022/08/25 08:31:41;;;;;;;23.80;11.82;;;;;;;-144.48;100.00;62369.91;4990500;28;21132;-73
2022/08/25 08:34:06;;;;;;;33.03;11.60;;;;;;;-144.48;100.00;62369.91;4993581;28;20073;-73
2022/08/25 08:36:32;;;;;;;26.02;10.98;;;;;;;-144.48;100.00;62369.91;4996972;28;20029;-72
2022/08/25 08:38:57;;;;;;;43.88;13.55;;;;;;;-144.48;100.00;62369.91;4991267;28;20030;-75
2022/08/25 08:44:43;;;;;;;43.53;15.35;;;;;;;-144.48;100.00;62369.91;4989573;28;20088;-74
2022/08/25 08:47:33;;;;;;;33.95;12.10;;;;;;;-144.48;100.00;62369.91;4997040;28;20679;-75
2022/08/25 08:50:14;;;;;;;32.40;12.00;;;;;;;-144.48;100.00;62369.91;4992428;28;20038;-73
2022/08/25 08:52:46;;;;;;;26.25;12.73;;;;;;;-144.48;100.00;62369.91;4996330;28;20018;-74
2022/08/25 08:55:21;;;;;;;25.58;11.55;;;;;;;-144.48;100.00;62369.91;4992770;28;20040;-73
2022/08/25 08:57:50;;;;;;;33.65;11.75;;;;;;;-144.48;100.00;62369.91;4994595;28;20089;-73
2022/08/25 09:00:16;;;;;;;26.33;11.98;;;;;;;-144.48;100.00;62369.91;4993272;28;20029;-75
2022/08/25 09:03:05;;;;;;;40.40;12.60;;;;;;;-144.48;100.00;62369.91;4992928;28;20128;-74
2022/08/25 09:05:39;;;;;;;35.03;12.68;;;;;;;-144.48;100.00;62369.91;4997643;28;20022;-73
2022/08/25 09:08:10;;;;;;;29.88;12.48;;;;;;;-144.48;100.00;62369.91;4990907;28;20041;-74
2022/08/25 09:10:50;;;;;;;30.98;12.15;;;;;;;-144.48;100.00;62369.91;4991670;28;20061;-74
2022/08/25 09:13:27;;;;;;;25.90;11.48;;;;;;;-144.48;100.00;62369.91;4995363;28;20030;-75
2022/08/25 09:19:13;;;;;;;28.42;11.50;;;;;;;-144.48;100.00;62369.91;4995418;28;20045;-75
2022/08/25 09:21:45;;;;;;;32.55;11.43;;;;;;;-144.48;100.00;62369.91;4994114;28;20030;-74
2022/08/25 09:24:36;;;;;;;25.25;10.35;;;;;;;-144.48;100.00;62369.91;4991450;28;20412;-74
2022/08/25 09:27:28;;;;;;;36.05;12.02;;;;;;;-144.48;100.00;62369.91;4991418;28;20388;-73
2022/08/25 09:30:00;;;;;;;29.13;11.90;;;;;;;-144.48;100.00;62369.91;4993514;28;20153;-74
2022/08/25 09:32:29;;;;;;;37.90;11.93;;;;;;;-144.48;100.00;62369.91;4996184;28;20022;-75
2022/08/25 09:34:55;;;;;;;26.27;10.98;;;;;;;-144.48;100.00;62369.91;4994017;28;20181;-75
2022/08/25 09:37:22;;;;;;;30.23;11.77;;;;;;;-144.48;100.00;62369.91;4993827;28;20776;-73
2022/08/25 09:39:47;;;;;;;27.67;10.68;;;;;;;-144.48;100.00;62369.91;4992339;28;20653;-74
2022/08/25 09:42:13;;;;;;;24.02;10.63;;;;;;;-144.48;100.00;62369.91;4993561;28;20042;-72
2022/08/25 09:44:42;;;;;;;23.42;11.93;;;;;;;-144.48;100.00;62369.91;4995113;28;20022;-72
2022/08/25 09:47:17;;;;;;;27.73;10.63;;;;;;;-144.48;100.00;62369.91;4994029;28;20091;-72
2022/08/25 09:49:46;;;;;;;36.50;12.15;;;;;;;-144.48;100.00;62369.91;4990564;28;20066;-75
2022/08/25 09:52:31;;;;;;;23.20;10.45;;;;;;;-144.48;100.00;62369.91;4995863;28;20038;-74
2022/08/25 09:55:01;;;;;;;22.98;10.60;;;;;;;-144.48;100.00;62369.91;4991963;28;20021;-71
2022/08/25 09:57:42;;;;;;;21.83;10.38;;;;;;;-144.48;100.00;62369.91;4993317;28;20477;-71
2022/08/25 10:00:09;;;;;;;31.48;11.45;;;;;;;-144.48;100.00;62369.91;4989305;28;20032;-72
2022/08/25 10:02:35;;;;;;;34.50;11.77;;;;;;;-144.48;100.00;62369.91;4993656;28;20085;-72
2022/08/25 10:05:18;;;;;;;30.88;9.77;;;;;;;-144.48;100.00;62369.91;4997100;28;20033;-74
2022/08/25 10:07:59;;;;;;;30.40;9.65;;;;;;;-144.48;100.00;62369.91;4990519;28;20030;-73
2022/08/25 10:10:38;;;;;;;27.95;9.45;;;;;;;-144.48;100.00;62369.91;4993434;28;20085;-74
2022/08/25 10:13:14;;;;;;;36.10;10.30;;;;;;;-144.48;100.00;62369.91;4991898;28;20022;-73
2022/08/25 10:15:39;;;;;;;48.38;10.40;;;;;;;-144.48;100.00;62369.91;4991072;28;20492;-74
2022/08/25 10:18:26;;;;;;;31.33;10.48;;;;;;;-144.48;100.00;62369.91;4993897;28;20053;-73
2022/08/25 10:21:12;;;;;;;29.67;9.03;;;;;;;-144.48;100.00;62369.91;4993270;28;20231;-74
2022/08/25 10:23:51;;;;;;;28.65;8.88;;;;;;;-144.48;100.00;62369.91;5008755;22;20108;-65
2022/08/25 10:26:55;;;;;;;39.58;9.20;;;;;;;-144.48;100.00;62369.91;4997078;28;20073;-66
2022/08/25 10:29:51;;;;;;;33.63;8.82;;;;;;;-144.48;100.00;62369.91;4994727;28;20096;-67
2022/08/25 10:32:31;;;;;;;33.30;10.38;;;;;;;-144.48;100.00;62369.91;5002719;28;20050;-67
2022/08/25 10:35:01;;;;;;;33.75;9.13;;;;;;;-144.48;100.00;62369.91;4988261;28;20097;-67
2022/08/25 10:37:37;;;;;;;33.72;9.32;;;;;;;-144.48;100.00;62369.91;4983183;28;20030;-68
2022/08/25 10:40:24;;;;;;;32.85;8.95;;;;;;;-144.48;100.00;62369.91;4979896;28;20034;-70
2022/08/25 10:43:05;;;;;;;30.15;9.90;;;;;;;-144.48;100.00;62369.91;4987629;28;20412;-68
2022/08/25 10:45:42;;;;;;;37.75;10.63;;;;;;;-144.48;100.00;62369.91;4986867;28;20033;-70
2022/08/25 10:48:18;;;;;;;32.28;10.68;;;;;;;-144.48;100.00;62369.91;4985170;28;20056;-67
2022/08/25 10:50:49;;;;;;;28.85;11.93;;;;;;;-144.48;100.00;62369.91;4983824;28;20029;-67
2022/08/25 10:53:20;;;;;;;34.50;10.32;;;;;;;-144.48;100.00;62369.91;4985938;28;20034;-66
2022/08/25 10:56:08;;;;;;;28.85;10.07;;;;;;;-144.48;100.00;62369.91;4986128;28;20053;-68
2022/08/25 10:58:53;;;;;;;40.17;10.80;;;;;;;-144.48;100.00;62369.91;4987298;28;20029;-66
2022/08/25 11:01:27;;;;;;;38.00;11.13;;;;;;;-144.48;100.00;62369.91;4984774;28;20034;-67
2022/08/25 11:04:11;;;;;;;38.88;10.05;;;;;;;-144.48;100.00;62369.91;4987560;28;20108;-69
2022/08/25 11:06:40;;;;;;;36.60;10.00;;;;;;;-144.48;100.00;62369.91;4986427;28;20031;-66
2022/08/25 11:09:11;;;;;;;33.58;10.15;;;;;;;-144.48;100.00;62369.91;4987689;28;20377;-68
2022/08/25 11:11:51;;;;;;;41.83;10.70;;;;;;;-144.48;100.00;62369.91;4983762;28;20057;-69
2022/08/25 11:14:23;;;;;;;30.98;10.25;;;;;;;-144.48;100.00;62369.91;4986939;28;20034;-68